Time;durP1;ratioP1;P1;durP2;ratioP2;P2;SDS_P1;SDS_P2;PMS_P1;PMS_P2;Temp;Humidity;BMP_temperature;BMP_pressure;BME280_temperature;BME280_humidity;BME280_pressure;Samples;Min_cycle;Max_cycle;Signal;HPM_P1;HPM_P2
2023/06/17 00:02:34;;;;;;;17.73;11.85;;;;;;;;;;4915841;29;20039;-91
2023/06/17 00:05:18;;;;;;;22.38;11.77;;;;;;;;;;4915429;29;20079;-91
2023/06/17 00:08:03;;;;;;;16.95;11.73;;;;;;;;;;4901344;29;20472;-91
2023/06/17 00:10:48;;;;;;;22.27;12.25;;;;;;;;;;4901614;29;20043;-90
2023/06/17 00:13:33;;;;;;;20.17;11.80;;;;;;;;;;4915808;29;20556;-90
2023/06/17 00:16:18;;;;;;;17.30;11.25;;;;;;;;;;4918929;29;20405;-90
2023/06/17 00:19:04;;;;;;;16.50;11.00;;;;;;;;;;4905043;29;20039;-90
2023/06/17 00:21:52;;;;;;;19.48;12.43;;;;;;;;;;4919281;29;20066;-91
2023/06/17 00:24:37;;;;;;;18.63;12.02;;;;;;;;;;4904944;29;20046;-90
2023/06/17 00:27:22;;;;;;;20.30;11.82;;;;;;;;;;4904382;29;20047;-90
2023/06/17 00:30:07;;;;;;;16.95;12.43;;;;;;;;;;4904421;29;20476;-91
2023/06/17 00:32:52;;;;;;;21.75;12.95;;;;;;;;;;4904758;29;20043;-90
2023/06/17 00:35:36;;;;;;;19.33;12.65;;;;;;;;;;4918990;29;20405;-91
2023/06/17 00:38:21;;;;;;;21.40;13.25;;;;;;;;;;4918615;29;20051;-90
2023/06/17 00:41:05;;;;;;;24.38;13.52;;;;;;;;;;4904659;29;20082;-91
2023/06/17 00:43:50;;;;;;;18.52;12.63;;;;;;;;;;4904542;29;20062;-90
2023/06/17 00:46:40;;;;;;;20.98;13.32;;;;;;;;;;4918939;29;20067;-90
2023/06/17 00:49:29;;;;;;;19.77;13.68;;;;;;;;;;4918463;29;20119;-90
2023/06/17 00:52:15;;;;;;;21.65;13.25;;;;;;;;;;4918293;29;20042;-90
2023/06/17 00:55:00;;;;;;;19.98;14.00;;;;;;;;;;4918758;29;20083;-90
2023/06/17 00:57:47;;;;;;;24.65;14.63;;;;;;;;;;4918591;29;20098;-91
2023/06/17 01:00:32;;;;;;;22.13;14.70;;;;;;;;;;4918160;29;20051;-91
2023/06/17 01:03:17;;;;;;;18.75;14.63;;;;;;;;;;4903892;29;20064;-91
2023/06/17 01:06:07;;;;;;;21.67;14.70;;;;;;;;;;4918425;29;20082;-92
2023/06/17 01:09:01;;;;;;;20.83;13.68;;;;;;;;;;4904200;29;20043;-91
2023/06/17 01:11:46;;;;;;;23.38;15.20;;;;;;;;;;4904263;29;20511;-91
2023/06/17 01:14:33;;;;;;;29.73;15.32;;;;;;;;;;4903736;29;20670;-90
2023/06/17 01:17:18;;;;;;;22.40;14.80;;;;;;;;;;4903744;29;20205;-91
2023/06/17 01:20:06;;;;;;;27.73;15.15;;;;;;;;;;4918263;29;20123;-90
2023/06/17 01:22:54;;;;;;;27.77;16.17;;;;;;;;;;4918512;29;20139;-90
2023/06/17 01:25:39;;;;;;;37.90;19.15;;;;;;;;;;4917784;29;20068;-90
2023/06/17 01:28:24;;;;;;;29.42;18.25;;;;;;;;;;4917767;29;20169;-90
2023/06/17 01:31:12;;;;;;;24.98;16.25;;;;;;;;;;4903838;29;20087;-90
2023/06/17 01:33:58;;;;;;;29.98;17.98;;;;;;;;;;4903745;29;20095;-89
2023/06/17 01:36:43;;;;;;;26.10;16.25;;;;;;;;;;4903737;29;20479;-90
2023/06/17 01:39:29;;;;;;;31.23;17.75;;;;;;;;;;4917680;29;20043;-90
2023/06/17 01:42:15;;;;;;;24.02;17.20;;;;;;;;;;4903378;29;20467;-92
2023/06/17 01:45:03;;;;;;;31.20;18.23;;;;;;;;;;4917725;29;20107;-90
2023/06/17 01:47:48;;;;;;;24.70;15.85;;;;;;;;;;4917768;29;20051;-90
2023/06/17 01:50:32;;;;;;;28.38;17.77;;;;;;;;;;4917307;29;20043;-90
2023/06/17 01:53:16;;;;;;;25.90;17.45;;;;;;;;;;4903110;29;20135;-93
2023/06/17 01:56:01;;;;;;;29.08;17.77;;;;;;;;;;4903289;29;20130;-90
2023/06/17 01:58:46;;;;;;;27.00;17.23;;;;;;;;;;4903353;29;20039;-90
2023/06/17 02:01:30;;;;;;;28.13;18.67;;;;;;;;;;4917214;29;20057;-91
2023/06/17 02:04:15;;;;;;;27.80;18.85;;;;;;;;;;4890061;29;20079;-90
2023/06/17 02:06:59;;;;;;;29.98;19.00;;;;;;;;;;4917432;29;20050;-90
2023/06/17 02:09:45;;;;;;;27.65;18.50;;;;;;;;;;4902974;29;20047;-90
2023/06/17 02:12:30;;;;;;;26.52;18.17;;;;;;;;;;4916995;29;20051;-90
2023/06/17 02:15:15;;;;;;;30.75;18.17;;;;;;;;;;4903005;29;20047;-90
2023/06/17 02:18:00;;;;;;;25.73;17.60;;;;;;;;;;4902863;29;20091;-91
2023/06/17 02:20:45;;;;;;;32.65;18.75;;;;;;;;;;4902351;29;20039;-90
2023/06/17 02:23:29;;;;;;;27.95;18.20;;;;;;;;;;4916764;29;20123;-92
2023/06/17 02:26:16;;;;;;;28.27;18.77;;;;;;;;;;4916957;29;20095;-90
2023/06/17 02:29:00;;;;;;;24.98;18.40;;;;;;;;;;4917027;29;20091;-90
2023/06/17 02:31:45;;;;;;;33.63;19.05;;;;;;;;;;4916820;29;20144;-91
2023/06/17 02:34:29;;;;;;;30.77;19.58;;;;;;;;;;4889204;29;20172;-90
2023/06/17 02:37:17;;;;;;;23.70;17.23;;;;;;;;;;4901858;29;20076;-90
2023/06/17 02:40:05;;;;;;;26.42;18.35;;;;;;;;;;4916906;29;20499;-91
2023/06/17 02:42:50;;;;;;;34.40;18.33;;;;;;;;;;4902530;29;20039;-91
2023/06/17 02:45:34;;;;;;;34.30;19.23;;;;;;;;;;4916277;29;20099;-90
2023/06/17 02:48:19;;;;;;;29.63;19.70;;;;;;;;;;4916728;29;20090;-91
2023/06/17 02:51:04;;;;;;;28.85;18.25;;;;;;;;;;4916651;29;20047;-91
2023/06/17 02:53:49;;;;;;;33.70;18.73;;;;;;;;;;4916613;29;20500;-91
2023/06/17 02:56:34;;;;;;;23.77;17.00;;;;;;;;;;4902137;29;20087;-90
2023/06/17 02:59:18;;;;;;;33.45;18.17;;;;;;;;;;4916622;29;20533;-90
2023/06/17 03:02:04;;;;;;;27.90;18.25;;;;;;;;;;4916663;29;20476;-90
2023/06/17 03:04:49;;;;;;;30.02;17.98;;;;;;;;;;4916460;29;20039;-90
2023/06/17 03:07:36;;;;;;;27.08;18.45;;;;;;;;;;4901940;29;20512;-90
2023/06/17 03:10:20;;;;;;;28.65;18.50;;;;;;;;;;4916537;29;20059;-90
2023/06/17 03:13:05;;;;;;;30.52;19.00;;;;;;;;;;4916364;29;20504;-90
2023/06/17 03:15:50;;;;;;;32.03;20.58;;;;;;;;;;4901972;29;20171;-90
2023/06/17 03:18:35;;;;;;;31.13;20.70;;;;;;;;;;4915977;29;20079;-90
2023/06/17 03:21:20;;;;;;;36.50;21.45;;;;;;;;;;4916211;29;20497;-90
2023/06/17 03:24:07;;;;;;;30.48;19.20;;;;;;;;;;4901936;29;20091;-90
2023/06/17 03:26:53;;;;;;;34.60;19.75;;;;;;;;;;4901908;29;20114;-89
2023/06/17 03:29:38;;;;;;;30.25;19.23;;;;;;;;;;4915770;29;20119;-90
2023/06/17 03:32:22;;;;;;;32.40;19.98;;;;;;;;;;4901701;29;20039;-90
2023/06/17 03:35:07;;;;;;;32.30;19.80;;;;;;;;;;4916028;29;20063;-90
2023/06/17 03:37:52;;;;;;;28.10;20.40;;;;;;;;;;4901420;29;20131;-90
2023/06/17 03:40:37;;;;;;;31.60;20.05;;;;;;;;;;4915295;29;20039;-90
2023/06/17 03:43:22;;;;;;;34.00;19.13;;;;;;;;;;4915837;29;20088;-90
2023/06/17 03:46:06;;;;;;;29.33;18.40;;;;;;;;;;4915536;29;20066;-90
2023/06/17 03:48:51;;;;;;;36.85;21.10;;;;;;;;;;4916911;29;20505;-90
2023/06/17 03:51:37;;;;;;;29.40;19.23;;;;;;;;;;4919507;29;20081;-91
2023/06/17 03:54:21;;;;;;;33.50;20.25;;;;;;;;;;4919783;29;20051;-90
2023/06/17 03:57:06;;;;;;;35.38;20.00;;;;;;;;;;4919708;29;20553;-89
2023/06/17 03:59:54;;;;;;;31.23;20.80;;;;;;;;;;4919265;29;20092;-90
2023/06/17 04:02:39;;;;;;;29.80;20.17;;;;;;;;;;4905311;29;20079;-90
2023/06/17 04:05:31;;;;;;;31.58;20.60;;;;;;;;;;4919685;29;20397;-90
2023/06/17 04:08:18;;;;;;;30.58;21.52;;;;;;;;;;4905448;29;20054;-89
2023/06/17 04:11:03;;;;;;;28.80;20.08;;;;;;;;;;4892320;29;20120;-90
2023/06/17 04:13:47;;;;;;;33.45;21.55;;;;;;;;;;4904832;29;20082;-90
2023/06/17 04:16:35;;;;;;;35.85;20.08;;;;;;;;;;4904975;29;20047;-92
2023/06/17 04:19:20;;;;;;;33.90;20.95;;;;;;;;;;4919384;29;20084;-90
2023/06/17 04:22:08;;;;;;;29.27;20.05;;;;;;;;;;4919192;29;20640;-90
2023/06/17 04:24:55;;;;;;;28.98;19.92;;;;;;;;;;4904660;29;20143;-90
2023/06/17 04:27:40;;;;;;;33.67;18.77;;;;;;;;;;4918881;29;20051;-91
2023/06/17 04:30:25;;;;;;;27.15;18.17;;;;;;;;;;4904905;29;20059;-90
2023/06/17 04:33:11;;;;;;;30.05;20.13;;;;;;;;;;4891783;29;20059;-90
2023/06/17 04:35:56;;;;;;;30.65;18.73;;;;;;;;;;4904358;29;20079;-90
2023/06/17 04:38:41;;;;;;;29.23;18.25;;;;;;;;;;4904348;29;20441;-90
2023/06/17 04:41:27;;;;;;;36.55;19.33;;;;;;;;;;4919085;29;20043;-90
2023/06/17 04:44:13;;;;;;;31.50;18.95;;;;;;;;;;4905080;29;20039;-90
2023/06/17 04:46:59;;;;;;;28.33;18.13;;;;;;;;;;4904158;29;20500;-90
2023/06/17 04:49:44;;;;;;;25.67;18.33;;;;;;;;;;4904159;29;20496;-90
2023/06/17 04:52:29;;;;;;;29.38;17.77;;;;;;;;;;4918920;29;20060;-91
2023/06/17 04:55:14;;;;;;;33.08;19.65;;;;;;;;;;4904507;29;20508;-90
2023/06/17 04:57:59;;;;;;;30.40;19.05;;;;;;;;;;4904330;29;20523;-89
2023/06/17 05:00:44;;;;;;;26.73;17.55;;;;;;;;;;4903414;29;20042;-90
2023/06/17 05:03:30;;;;;;;28.13;18.67;;;;;;;;;;4918811;29;20107;-90
2023/06/17 05:06:15;;;;;;;27.88;18.00;;;;;;;;;;4904124;29;20050;-90
2023/06/17 05:08:59;;;;;;;27.13;17.27;;;;;;;;;;4903865;29;20043;-90
2023/06/17 05:11:44;;;;;;;30.10;19.13;;;;;;;;;;4904012;29;20099;-89
2023/06/17 05:14:29;;;;;;;30.40;18.67;;;;;;;;;;4918633;29;20046;-91
2023/06/17 05:17:14;;;;;;;28.73;19.25;;;;;;;;;;4904335;29;20051;-90
2023/06/17 05:19:58;;;;;;;25.88;17.70;;;;;;;;;;4918171;29;20047;-89
2023/06/17 05:22:43;;;;;;;26.02;18.33;;;;;;;;;;4903762;29;20099;-90
2023/06/17 05:25:27;;;;;;;31.10;19.23;;;;;;;;;;4904298;29;20047;-90
2023/06/17 05:28:13;;;;;;;27.30;19.58;;;;;;;;;;4903921;29;20103;-89
2023/06/17 05:30:57;;;;;;;28.85;17.95;;;;;;;;;;4918011;29;20038;-90
2023/06/17 05:33:42;;;;;;;33.42;17.58;;;;;;;;;;4917772;29;20047;-90
2023/06/17 05:36:27;;;;;;;26.73;18.27;;;;;;;;;;4903844;29;20072;-90
2023/06/17 05:39:11;;;;;;;27.13;19.42;;;;;;;;;;4903766;29;20043;-89
2023/06/17 05:41:56;;;;;;;28.10;17.90;;;;;;;;;;4917725;29;20088;-89
2023/06/17 05:44:41;;;;;;;28.15;18.77;;;;;;;;;;4890398;29;20609;-93
2023/06/17 05:47:25;;;;;;;26.45;18.48;;;;;;;;;;4903414;29;20059;-90
2023/06/17 05:50:10;;;;;;;27.60;18.90;;;;;;;;;;4918011;29;20068;-90
2023/06/17 05:52:54;;;;;;;29.73;18.90;;;;;;;;;;4890015;29;20123;-90
2023/06/17 05:55:39;;;;;;;33.85;19.70;;;;;;;;;;4917600;29;20504;-90
2023/06/17 05:58:23;;;;;;;29.52;18.42;;;;;;;;;;4917815;29;20134;-90
2023/06/17 06:01:08;;;;;;;27.92;18.85;;;;;;;;;;4890265;29;20110;-90
2023/06/17 06:03:53;;;;;;;26.40;19.02;;;;;;;;;;4889917;29;20078;-91
2023/06/17 06:06:37;;;;;;;24.80;17.23;;;;;;;;;;4903218;29;20545;-92
2023/06/17 06:09:22;;;;;;;26.13;17.83;;;;;;;;;;4895602;29;20441;-89
2023/06/17 06:12:06;;;;;;;28.13;18.42;;;;;;;;;;4902096;29;20389;-90
2023/06/17 06:14:53;;;;;;;29.25;18.23;;;;;;;;;;4917107;29;20050;-90
2023/06/17 06:17:38;;;;;;;27.65;18.27;;;;;;;;;;4903009;29;20087;-90
2023/06/17 06:20:23;;;;;;;26.08;18.65;;;;;;;;;;4917393;29;20488;-90
2023/06/17 06:23:09;;;;;;;23.50;17.80;;;;;;;;;;4917141;29;20165;-89
2023/06/17 06:25:53;;;;;;;26.42;17.52;;;;;;;;;;4916903;29;20067;-90
2023/06/17 06:28:38;;;;;;;28.63;17.42;;;;;;;;;;4902799;29;20425;-90
2023/06/17 06:31:22;;;;;;;29.25;18.10;;;;;;;;;;4917216;29;20048;-89
2023/06/17 06:34:07;;;;;;;25.42;17.13;;;;;;;;;;4889332;29;20580;-90
2023/06/17 06:36:53;;;;;;;26.15;17.35;;;;;;;;;;4889269;29;20055;-89
2023/06/17 06:39:38;;;;;;;25.98;17.70;;;;;;;;;;4902988;29;20051;-89
2023/06/17 06:42:25;;;;;;;26.77;16.75;;;;;;;;;;4916994;29;20039;-90
2023/06/17 06:45:10;;;;;;;22.92;16.50;;;;;;;;;;4902216;29;20564;-90
2023/06/17 06:47:55;;;;;;;27.20;16.73;;;;;;;;;;4916698;29;20051;-90
2023/06/17 06:50:39;;;;;;;20.95;14.90;;;;;;;;;;4917282;29;20491;-91
2023/06/17 06:53:24;;;;;;;24.25;15.85;;;;;;;;;;4918142;29;20127;-90
2023/06/17 06:56:08;;;;;;;21.63;15.95;;;;;;;;;;4904298;29;20047;-89
2023/06/17 06:58:56;;;;;;;24.55;14.70;;;;;;;;;;4918196;29;20047;-90
2023/06/17 07:01:40;;;;;;;29.05;15.55;;;;;;;;;;4886388;29;20095;-91
2023/06/17 07:04:31;;;;;;;24.42;14.75;;;;;;;;;;4902310;29;20075;-90
2023/06/17 07:07:15;;;;;;;20.02;15.32;;;;;;;;;;4889242;29;20051;-92
2023/06/17 07:10:00;;;;;;;26.88;15.57;;;;;;;;;;4901885;29;20092;-90
2023/06/17 07:12:44;;;;;;;19.67;13.60;;;;;;;;;;4902145;29;20038;-90
2023/06/17 07:15:29;;;;;;;22.45;15.20;;;;;;;;;;4916347;29;20096;-90
2023/06/17 07:18:13;;;;;;;20.13;13.90;;;;;;;;;;4901580;29;20062;-89
2023/06/17 07:20:58;;;;;;;21.27;15.48;;;;;;;;;;4901630;29;20047;-90
2023/06/17 07:23:42;;;;;;;19.40;14.23;;;;;;;;;;4915916;29;20087;-91
2023/06/17 07:26:27;;;;;;;19.15;13.77;;;;;;;;;;4901852;29;20100;-91
2023/06/17 07:29:12;;;;;;;20.05;14.27;;;;;;;;;;4901638;29;20124;-90
2023/06/17 07:31:56;;;;;;;18.10;13.98;;;;;;;;;;4901447;29;20083;-90
2023/06/17 07:34:41;;;;;;;23.42;14.02;;;;;;;;;;4901888;29;20091;-90
2023/06/17 07:37:27;;;;;;;16.45;13.60;;;;;;;;;;4916446;29;20108;-90
2023/06/17 07:40:13;;;;;;;20.65;13.85;;;;;;;;;;4888622;29;20072;-90
2023/06/17 07:42:57;;;;;;;19.45;13.23;;;;;;;;;;4915735;29;20095;-91
2023/06/17 07:45:42;;;;;;;21.00;13.95;;;;;;;;;;4916312;29;20062;-90
2023/06/17 07:48:27;;;;;;;23.60;13.15;;;;;;;;;;4916268;29;20512;-90
2023/06/17 07:51:11;;;;;;;20.50;13.77;;;;;;;;;;4901281;29;20461;-90
2023/06/17 07:53:56;;;;;;;20.50;13.75;;;;;;;;;;4888661;29;20501;-91
2023/06/17 07:56:40;;;;;;;20.15;13.93;;;;;;;;;;4901533;29;20063;-89
2023/06/17 07:59:25;;;;;;;20.77;12.27;;;;;;;;;;4901453;29;20493;-90
2023/06/17 08:02:10;;;;;;;19.92;12.57;;;;;;;;;;4915635;29;20127;-90
2023/06/17 08:04:54;;;;;;;21.50;13.50;;;;;;;;;;4915981;29;20082;-90
2023/06/17 08:07:39;;;;;;;20.45;12.45;;;;;;;;;;4916357;29;20103;-90
2023/06/17 08:10:24;;;;;;;17.42;13.32;;;;;;;;;;4918740;29;20068;-90
2023/06/17 08:13:08;;;;;;;17.60;12.23;;;;;;;;;;4918356;29;20087;-90
2023/06/17 08:15:53;;;;;;;17.75;12.43;;;;;;;;;;4905870;29;20066;-91
2023/06/17 08:18:38;;;;;;;18.98;12.82;;;;;;;;;;4900328;29;20068;-90
2023/06/17 08:21:22;;;;;;;17.75;13.10;;;;;;;;;;4904562;29;20087;-90
2023/06/17 08:24:22;;;;;;;18.58;12.20;;;;;;;;;;4901488;29;20122;-90
2023/06/17 08:27:09;;;;;;;20.00;12.77;;;;;;;;;;4900989;29;20047;-90
2023/06/17 08:29:54;;;;;;;18.20;12.98;;;;;;;;;;4901946;29;20082;-92
2023/06/17 08:32:39;;;;;;;17.00;12.77;;;;;;;;;;4915935;29;20065;-88
2023/06/17 08:35:23;;;;;;;18.60;11.85;;;;;;;;;;4916024;29;20400;-90
2023/06/17 08:38:08;;;;;;;20.05;11.48;;;;;;;;;;4904604;29;20552;-89
2023/06/17 08:40:52;;;;;;;17.50;10.80;;;;;;;;;;4919208;29;20039;-89
2023/06/17 08:43:38;;;;;;;16.10;11.20;;;;;;;;;;4919084;29;20087;-90
2023/06/17 08:46:23;;;;;;;12.98;10.60;;;;;;;;;;4918426;29;20123;-89
2023/06/17 08:49:08;;;;;;;17.70;12.25;;;;;;;;;;4904332;29;20059;-89
2023/06/17 08:51:53;;;;;;;21.00;11.77;;;;;;;;;;4918961;29;20111;-89
2023/06/17 08:54:42;;;;;;;16.88;11.27;;;;;;;;;;4904607;29;20043;-88
2023/06/17 08:57:27;;;;;;;14.70;11.15;;;;;;;;;;4918259;29;20095;-90
2023/06/17 09:00:13;;;;;;;17.17;11.27;;;;;;;;;;4903961;29;20092;-90
2023/06/17 09:03:00;;;;;;;17.83;11.25;;;;;;;;;;4904366;29;20070;-89
2023/06/17 09:05:44;;;;;;;16.40;11.13;;;;;;;;;;4918400;29;20039;-90
2023/06/17 09:08:30;;;;;;;18.30;10.93;;;;;;;;;;4918295;29;20079;-89
2023/06/17 09:11:15;;;;;;;19.10;11.00;;;;;;;;;;4903899;29;20043;-89
2023/06/17 09:14:01;;;;;;;17.35;10.77;;;;;;;;;;4904242;29;20099;-89
2023/06/17 09:16:46;;;;;;;19.25;11.45;;;;;;;;;;4904156;29;20492;-89
2023/06/17 09:19:31;;;;;;;13.73;10.68;;;;;;;;;;4903764;29;20484;-89
2023/06/17 09:22:17;;;;;;;16.55;11.93;;;;;;;;;;4917778;29;20119;-89
2023/06/17 09:25:04;;;;;;;17.58;11.13;;;;;;;;;;4904095;29;20050;-90
2023/06/17 09:27:52;;;;;;;18.13;10.88;;;;;;;;;;4918430;29;20172;-92
2023/06/17 09:30:42;;;;;;;14.00;10.88;;;;;;;;;;4903952;29;20035;-90
2023/06/17 09:33:27;;;;;;;14.35;9.75;;;;;;;;;;4903597;29;20074;-90
2023/06/17 09:36:12;;;;;;;17.73;10.40;;;;;;;;;;4917990;29;20090;-90
2023/06/17 09:38:56;;;;;;;14.85;8.60;;;;;;;;;;4918029;29;20079;-90
2023/06/17 09:41:41;;;;;;;17.13;8.55;;;;;;;;;;4918294;29;20068;-90
2023/06/17 09:44:27;;;;;;;14.20;8.70;;;;;;;;;;4903480;29;20043;-91
2023/06/17 09:47:12;;;;;;;10.20;7.35;;;;;;;;;;4902826;29;20133;-90
2023/06/17 09:49:57;;;;;;;12.80;7.20;;;;;;;;;;4903761;29;20058;-90
2023/06/17 09:52:42;;;;;;;13.98;8.23;;;;;;;;;;4903393;29;20047;-91
2023/06/17 09:55:26;;;;;;;14.65;7.65;;;;;;;;;;4902633;29;20099;-90
2023/06/17 09:58:12;;;;;;;13.45;7.97;;;;;;;;;;4917072;29;20051;-88
2023/06/17 10:00:57;;;;;;;9.40;6.97;;;;;;;;;;4917284;29;20065;-90
2023/06/17 10:03:42;;;;;;;11.45;7.05;;;;;;;;;;4917490;29;20043;-91
2023/06/17 10:06:29;;;;;;;13.30;7.43;;;;;;;;;;4916926;29;20095;-90
2023/06/17 10:09:13;;;;;;;14.68;7.00;;;;;;;;;;4916801;29;20484;-89
2023/06/17 10:11:58;;;;;;;14.02;7.30;;;;;;;;;;4916978;29;20408;-89
2023/06/17 10:14:43;;;;;;;12.20;7.40;;;;;;;;;;4916367;29;20047;-90
2023/06/17 10:17:28;;;;;;;12.60;7.05;;;;;;;;;;4916812;29;20099;-89
2023/06/17 10:20:14;;;;;;;12.88;7.50;;;;;;;;;;4917341;29;20088;-90
2023/06/17 10:23:01;;;;;;;18.27;7.10;;;;;;;;;;4917485;29;20408;-90
2023/06/17 10:25:46;;;;;;;12.38;6.68;;;;;;;;;;4902955;29;20401;-89
2023/06/17 10:28:42;;;;;;;9.80;6.20;;;;;;;;;;4916930;29;20457;-88
2023/06/17 10:31:28;;;;;;;12.68;6.95;;;;;;;;;;4916867;29;20070;-89
2023/06/17 10:34:17;;;;;;;10.00;6.32;;;;;;;;;;4916956;29;20043;-90
2023/06/17 10:37:02;;;;;;;9.32;6.07;;;;;;;;;;4916887;29;20050;-89
2023/06/17 10:39:52;;;;;;;10.88;6.45;;;;;;;;;;4916757;29;20127;-89
2023/06/17 10:42:37;;;;;;;10.73;6.22;;;;;;;;;;4916470;29;20095;-89
2023/06/17 10:45:21;;;;;;;14.80;6.43;;;;;;;;;;4901950;29;20050;-89
2023/06/17 10:48:25;;;;;;;12.88;6.00;;;;;;;;;;4916687;29;20095;-89
2023/06/17 10:51:11;;;;;;;9.35;5.60;;;;;;;;;;4902310;29;20406;-88
2023/06/17 10:53:57;;;;;;;9.98;5.95;;;;;;;;;;4916507;29;20035;-89
2023/06/17 10:56:51;;;;;;;11.63;6.32;;;;;;;;;;4902042;29;20051;-89
2023/06/17 10:59:35;;;;;;;8.27;5.93;;;;;;;;;;4901175;29;20115;-89
2023/06/17 11:02:21;;;;;;;7.55;5.63;;;;;;;;;;4916087;29;20111;-90
2023/06/17 11:05:06;;;;;;;10.18;5.95;;;;;;;;;;4916497;29;20103;-90
2023/06/17 11:07:51;;;;;;;14.02;6.10;;;;;;;;;;4901932;29;20192;-89
2023/06/17 11:10:36;;;;;;;12.57;6.22;;;;;;;;;;4916153;29;20043;-88
2023/06/17 11:13:21;;;;;;;12.10;6.13;;;;;;;;;;4916057;29;20496;-90
2023/06/17 11:16:06;;;;;;;10.30;6.13;;;;;;;;;;4916139;29;20051;-89
2023/06/17 11:18:51;;;;;;;9.40;5.65;;;;;;;;;;4916329;29;20071;-90
2023/06/17 11:21:37;;;;;;;12.15;6.15;;;;;;;;;;4902241;29;20107;-92
2023/06/17 11:24:22;;;;;;;11.77;5.85;;;;;;;;;;4915860;29;20107;-91
2023/06/17 11:27:07;;;;;;;9.63;5.97;;;;;;;;;;4901882;29;20058;-92
2023/06/17 11:29:51;;;;;;;10.23;5.43;;;;;;;;;;4888907;29;20051;-88
2023/06/17 11:32:36;;;;;;;10.10;6.20;;;;;;;;;;4915891;29;20068;-89
2023/06/17 11:35:21;;;;;;;10.20;5.32;;;;;;;;;;4916635;29;20064;-92
2023/06/17 11:38:09;;;;;;;10.88;5.85;;;;;;;;;;4901954;29;20096;-90
2023/06/17 11:40:57;;;;;;;7.65;5.05;;;;;;;;;;4902395;29;20044;-92
2023/06/17 11:43:51;;;;;;;8.07;5.00;;;;;;;;;;4910839;29;20166;-90
2023/06/17 11:46:37;;;;;;;8.65;5.05;;;;;;;;;;4915877;29;20493;-91
2023/06/17 11:49:28;;;;;;;7.07;5.20;;;;;;;;;;4916087;29;20050;-91
2023/06/17 11:52:13;;;;;;;8.52;5.10;;;;;;;;;;4916294;29;20553;-90
2023/06/17 11:54:58;;;;;;;8.43;5.68;;;;;;;;;;4901790;29;20053;-90
2023/06/17 11:57:43;;;;;;;9.38;5.28;;;;;;;;;;4915986;29;20051;-90
2023/06/17 12:00:29;;;;;;;7.82;5.20;;;;;;;;;;4901701;29;20503;-91
2023/06/17 12:03:14;;;;;;;7.97;5.05;;;;;;;;;;4901724;29;20091;-91
2023/06/17 12:06:16;;;;;;;9.95;5.50;;;;;;;;;;4901583;29;20043;-91
2023/06/17 12:09:06;;;;;;;15.93;6.33;;;;;;;;;;4916025;29;20043;-91
2023/06/17 12:11:51;;;;;;;10.13;5.30;;;;;;;;;;4918718;29;20340;-91
2023/06/17 12:14:37;;;;;;;10.98;5.57;;;29.10;69.10;;;;;;4919181;29;20452;-90
2023/06/17 12:17:22;;;;;;;9.95;5.55;;;;;;;;;;4919462;29;20713;-91
2023/06/17 12:20:17;;;;;;;9.98;5.15;;;;;;;;;;4905244;29;20130;-90
2023/06/17 12:23:02;;;;;;;11.18;5.47;;;;;;;;;;4919386;29;20039;-91
2023/06/17 12:25:47;;;;;;;10.38;5.43;;;;;;;;;;4919003;29;20099;-91
2023/06/17 12:28:32;;;;;;;7.63;4.70;;;;;;;;;;4918818;29;20059;-91
2023/06/17 12:31:17;;;;;;;8.05;5.38;;;;;;;;;;4919308;29;20051;-90
2023/06/17 12:34:03;;;;;;;8.38;5.55;;;;;;;;;;4905124;29;20043;-90
2023/06/17 12:36:47;;;;;;;8.32;5.22;;;;;;;;;;4904431;29;20336;-91
2023/06/17 12:39:34;;;;;;;8.52;4.97;;;;;;;;;;4918744;29;20132;-92
2023/06/17 12:42:19;;;;;;;7.93;5.00;;;;;;;;;;4904765;29;20126;-90
2023/06/17 12:45:06;;;;;;;7.07;4.90;;;;;;;;;;4918960;29;20043;-91
2023/06/17 12:47:51;;;;;;;10.05;5.25;;;;;;;;;;4918484;29;20058;-90
2023/06/17 12:50:36;;;;;;;10.40;4.65;;;;;;;;;;4904164;29;20048;-90
2023/06/17 12:53:21;;;;;;;8.57;5.25;;;;;;;;;;4918849;29;20556;-91
2023/06/17 12:56:06;;;;;;;7.05;4.88;;;;;;;;;;4904566;29;20123;-91
2023/06/17 12:58:51;;;;;;;6.68;4.93;;;;;;;;;;4903950;29;20043;-91
2023/06/17 13:01:36;;;;;;;9.75;5.13;;;;;;;;;;4918289;29;20087;-91
2023/06/17 13:04:21;;;;;;;7.25;4.80;;;;;;;;;;4918716;29;20039;-90
2023/06/17 13:07:05;;;;;;;9.30;4.82;;;;;;;;;;4918469;29;20075;-90
2023/06/17 13:09:50;;;;;;;7.72;5.00;;;;;;;;;;4903966;29;20047;-90
2023/06/17 13:12:34;;;;;;;8.95;4.68;;;;;;;;;;4918592;29;20086;-90
2023/06/17 13:15:19;;;;;;;8.55;5.22;;;;;;;;;;4904179;29;20075;-91
2023/06/17 13:18:03;;;;;;;7.68;4.75;;;;;;;;;;4904164;29;20119;-90
2023/06/17 13:20:48;;;;;;;8.20;4.93;;;;;;;;;;4917595;29;20072;-90
2023/06/17 13:23:32;;;;;;;9.60;5.22;;;;;;;;;;4918342;29;20056;-90
2023/06/17 13:26:22;;;;;;;8.90;5.47;;;;;;;;;;4903990;29;20058;-90
2023/06/17 13:29:08;;;;;;;12.07;5.55;;;;;;;;;;4903732;29;20120;-90
2023/06/17 13:31:52;;;;;;;7.43;5.22;;;;;;;;;;4917734;29;20056;-90
2023/06/17 13:34:37;;;;;;;7.82;5.40;;;;;;;;;;4884469;29;20055;-89
2023/06/17 13:37:21;;;;;;;9.98;5.95;;;;;;;;;;4890523;29;20103;-91
2023/06/17 13:40:06;;;;;;;8.23;5.32;;;;;;;;;;4918027;29;20047;-91
2023/06/17 13:42:52;;;;;;;7.85;5.43;;;;;;;;;;4917739;29;20610;-91
2023/06/17 13:45:37;;;;;;;8.02;5.70;;;;;;;;;;4903473;29;20091;-90
2023/06/17 13:48:21;;;;;;;9.90;5.50;;;;;;;;;;4903587;29;20613;-91
2023/06/17 13:51:06;;;;;;;8.98;5.40;;;;;;;;;;4917781;29;20050;-90
2023/06/17 13:53:51;;;;;;;9.82;5.13;;;;;;;;;;4917395;29;20039;-91
2023/06/17 13:56:35;;;;;;;9.15;5.60;;;;;;;;;;4903354;29;20099;-90
2023/06/17 13:59:20;;;;;;;11.25;5.40;;;;;;;;;;4890322;29;20095;-91
2023/06/17 14:02:05;;;;;;;7.68;5.45;;;;;;;;;;4917602;29;20582;-91
2023/06/17 14:04:51;;;;;;;8.10;5.53;;;;;;;;;;4917219;29;20505;-90
2023/06/17 14:07:36;;;;;;;11.20;5.82;;;;;;;;;;4917363;29;20417;-91
2023/06/17 14:10:24;;;;;;;9.70;5.60;;;;;;;;;;4903098;29;20047;-91
2023/06/17 14:13:09;;;;;;;7.60;4.95;;;;;;;;;;4903710;29;20564;-91
2023/06/17 14:15:54;;;;;;;8.75;5.75;;;;;;;;;;4902475;29;20123;-90
2023/06/17 14:18:39;;;;;;;11.85;6.15;;;;;;;;;;4917403;29;20537;-90
2023/06/17 14:21:27;;;;;;;8.43;4.93;;;;;;;;;;4917252;29;20168;-90
2023/06/17 14:24:12;;;;;;;9.45;5.95;;;;;;;;;;4902899;29;20064;-90
2023/06/17 14:27:08;;;;;;;12.52;6.55;;;;;;;;;;4916753;29;20050;-90
2023/06/17 14:29:54;;;;;;;9.38;5.50;;;;;;;;;;4916893;29;20115;-90
2023/06/17 14:32:40;;;;;;;9.65;5.97;;;;;;;;;;4916607;29;20168;-91
2023/06/17 14:35:24;;;;;;;10.27;6.00;;;;;;;;;;4916943;29;20043;-90
2023/06/17 14:38:10;;;;;;;9.45;5.82;;;;;;;;;;4902581;29;20457;-89
2023/06/17 14:40:54;;;;;;;9.93;5.35;;;;;;;;;;4888969;29;20131;-89
2023/06/17 14:43:40;;;;;;;9.65;6.03;;;;;;;;;;4916747;29;20064;-90
2023/06/17 14:46:24;;;;;;;9.73;5.82;;;;;;;;;;4902131;29;20531;-90
2023/06/17 14:49:09;;;;;;;14.88;5.93;;;;;;;;;;4916663;29;20047;-90
2023/06/17 14:51:54;;;;;;;9.43;5.88;;;;;;;;;;4902075;29;20175;-90
2023/06/17 14:54:38;;;;;;;9.07;5.35;;;;;;;;;;4916647;29;20454;-90
2023/06/17 14:57:23;;;;;;;8.77;5.63;;;;;;;;;;4902301;29;20042;-90
2023/06/17 15:00:08;;;;;;;13.10;5.82;;;;;;;;;;4888848;29;20059;-90
2023/06/17 15:02:55;;;;;;;10.65;5.72;;;;;;;;;;4916147;29;20046;-89
2023/06/17 15:05:40;;;;;;;9.75;5.60;;;;;;;;;;4916479;29;20075;-89
2023/06/17 15:08:24;;;;;;;9.70;5.90;;;;;;;;;;4916466;29;20413;-90
2023/06/17 15:11:09;;;;;;;12.40;6.15;;;;;;;;;;4916068;29;20043;-89
2023/06/17 15:13:54;;;;;;;9.10;5.38;;;;;;;;;;4916080;29;20129;-89
2023/06/17 15:16:38;;;;;;;11.27;5.80;;;;;;;;;;4901946;29;20051;-90
2023/06/17 15:19:23;;;;;;;7.70;5.38;;;;;;;;;;4902106;29;20445;-90
2023/06/17 15:22:07;;;;;;;9.18;5.78;;;;;;;;;;4901872;29;20365;-89
2023/06/17 15:24:52;;;;;;;8.13;5.38;;;;;;;;;;4888365;29;20047;-89
2023/06/17 15:27:37;;;;;;;9.80;5.70;;;;;;;;;;4916179;29;20095;-89
2023/06/17 15:30:21;;;;;;;9.77;5.70;;;;;;;;;;4889866;29;20138;-90
2023/06/17 15:33:06;;;;;;;8.77;5.93;;;;;;;;;;4916121;29;20071;-89
2023/06/17 15:35:50;;;;;;;10.13;5.30;;;;;;;;;;4901909;29;20086;-90
2023/06/17 15:38:35;;;;;;;8.93;5.57;;;;;;;;;;4901672;29;20042;-89
2023/06/17 15:41:20;;;;;;;11.13;6.43;;;;;;;;;;4901761;29;20127;-90
2023/06/17 15:44:04;;;;;;;8.85;6.25;;;;;;;;;;4915791;29;20095;-90
2023/06/17 15:46:50;;;;;;;9.88;6.03;;;;;;;;;;4892311;29;20107;-89
2023/06/17 15:49:34;;;;;;;14.10;6.43;;;;;;;;;;4919760;29;20043;-90
2023/06/17 15:52:23;;;;;;;11.82;5.72;;;;;;;;;;4919788;29;20055;-90
2023/06/17 15:55:07;;;;;;;9.90;5.97;;;;;;;;;;4918506;29;20099;-91
2023/06/17 15:57:52;;;;;;;15.48;6.90;;;;;;;;;;4892000;29;20503;-89
2023/06/17 16:00:37;;;;;;;7.85;5.72;;;;;;;;;;4919737;29;20592;-89
2023/06/17 16:03:28;;;;;;;12.25;6.05;;;;;;;;;;4919677;29;20428;-91
2023/06/17 16:06:13;;;;;;;12.10;6.07;;;;;;;;;;4918198;29;20047;-90
2023/06/17 16:08:58;;;;;;;11.70;6.22;;;;;;;;;;4919296;29;20123;-89
2023/06/17 16:11:42;;;;;;;12.57;6.38;;;;;;;;;;4918539;29;20087;-90
2023/06/17 16:14:28;;;;;;;14.45;6.75;;;;;;;;;;4919479;29;20047;-91